AIRUN2 LILV-LILV
Flight info
| Callsign | AIRUN2 |
|---|---|
| Flight time | 0h 11m |
| Altitude | 2500 |
| Route | XXXX XXXX |
| Aircraft | CC19/L-SDE/L |
Departure
| Time | 2026-05-06 11:36 |
|---|---|
| Airport | Valbrembo Airfield (LILV) |
Arrival
| Time | 2026-05-06 11:48 |
|---|---|
| Airport | Valbrembo Airfield (LILV) |
| Time | Latitude | Longitude | Altitude | Speed | Heading |
|---|---|---|---|---|---|
| 2026-05-06 11:30 | 45.71599 | 9.59211 | 746 ft | 0 kts | 304° |
| 2026-05-06 11:33 | 45.71600 | 9.59208 | 746 ft | 2 kts | 291° |
| 2026-05-06 11:33 | 45.71630 | 9.59185 | 746 ft | 3 kts | 27° |
| 2026-05-06 11:34 | 45.71651 | 9.59198 | 758 ft | 0 kts | 19° |
| 2026-05-06 11:34 | 45.71663 | 9.59205 | 743 ft | 13 kts | 24° |
| 2026-05-06 11:34 | 45.71865 | 9.59329 | 754 ft | 46 kts | 25° |
| 2026-05-06 11:34 | 45.72180 | 9.59515 | 755 ft | 28 kts | 14° |
| 2026-05-06 11:35 | 45.72217 | 9.59535 | 757 ft | 0 kts | 24° |
| 2026-05-06 11:35 | 45.72298 | 9.59593 | 755 ft | 42 kts | 31° |
| 2026-05-06 11:35 | 45.72680 | 9.59783 | 788 ft | 81 kts | 2° |
| 2026-05-06 11:36 | 45.73249 | 9.59489 | 991 ft | 94 kts | 327° |
| 2026-05-06 11:36 | 45.73729 | 9.58848 | 1228 ft | 96 kts | 318° |
| 2026-05-06 11:36 | 45.74219 | 9.58181 | 1434 ft | 95 kts | 320° |
| 2026-05-06 11:36 | 45.74686 | 9.57574 | 1704 ft | 94 kts | 320° |
| 2026-05-06 11:37 | 45.75245 | 9.56945 | 1866 ft | 110 kts | 323° |
| 2026-05-06 11:37 | 45.75542 | 9.55996 | 2191 ft | 113 kts | 276° |
| 2026-05-06 11:37 | 45.75535 | 9.54893 | 2526 ft | 119 kts | 287° |
| 2026-05-06 11:37 | 45.75962 | 9.54029 | 2887 ft | 114 kts | 266° |
| 2026-05-06 11:38 | 45.75749 | 9.52944 | 3347 ft | 93 kts | 264° |
| 2026-05-06 11:38 | 45.76030 | 9.52000 | 3734 ft | 124 kts | 339° |
| 2026-05-06 11:38 | 45.76643 | 9.52231 | 4548 ft | 81 kts | 65° |
| 2026-05-06 11:38 | 45.77136 | 9.52803 | 5140 ft | 106 kts | 2° |
| 2026-05-06 11:39 | 45.77916 | 9.52757 | 5652 ft | 114 kts | 359° |
| 2026-05-06 11:39 | 45.78627 | 9.53116 | 5849 ft | 118 kts | 46° |
| 2026-05-06 11:39 | 45.79396 | 9.53539 | 6118 ft | 127 kts | 12° |
| 2026-05-06 11:39 | 45.80337 | 9.54024 | 5724 ft | 153 kts | 33° |
| 2026-05-06 11:40 | 45.81177 | 9.54680 | 5540 ft | 123 kts | 36° |
| 2026-05-06 11:40 | 45.81919 | 9.55214 | 5353 ft | 112 kts | 30° |
| 2026-05-06 11:40 | 45.82551 | 9.55719 | 5280 ft | 101 kts | 38° |
| 2026-05-06 11:40 | 45.82973 | 9.56025 | 5193 ft | 105 kts | 29° |
| 2026-05-06 11:41 | 45.83594 | 9.56532 | 4951 ft | 113 kts | 41° |
| 2026-05-06 11:41 | 45.83930 | 9.57345 | 4475 ft | 103 kts | 153° |
| 2026-05-06 11:41 | 45.83941 | 9.56549 | 3953 ft | 112 kts | 319° |
| 2026-05-06 11:41 | 45.84595 | 9.56417 | 3753 ft | 90 kts | 52° |
| 2026-05-06 11:42 | 45.84521 | 9.57219 | 3697 ft | 79 kts | 129° |
| 2026-05-06 11:42 | 45.84101 | 9.57662 | 3647 ft | 79 kts | 161° |
| 2026-05-06 11:42 | 45.83634 | 9.58025 | 3568 ft | 82 kts | 149° |
| 2026-05-06 11:42 | 45.83230 | 9.58516 | 3641 ft | 76 kts | 140° |
| 2026-05-06 11:43 | 45.82707 | 9.58904 | 3662 ft | 94 kts | 162° |
| 2026-05-06 11:43 | 45.82231 | 9.59467 | 3729 ft | 89 kts | 119° |
| 2026-05-06 11:43 | 45.81771 | 9.60084 | 3638 ft | 90 kts | 139° |
| 2026-05-06 11:44 | 45.80897 | 9.61134 | 3427 ft | 67 kts | 182° |
| 2026-05-06 11:44 | 45.80440 | 9.60807 | 3446 ft | 64 kts | 187° |
| 2026-05-06 11:44 | 45.80058 | 9.60736 | 3516 ft | 75 kts | 258° |
| 2026-05-06 11:44 | 45.80374 | 9.60594 | 3587 ft | 83 kts | 122° |
| 2026-05-06 11:45 | 45.79730 | 9.60908 | 3467 ft | 110 kts | 171° |
| 2026-05-06 11:45 | 45.78941 | 9.60920 | 3407 ft | 116 kts | 187° |
| 2026-05-06 11:45 | 45.78125 | 9.60787 | 3226 ft | 126 kts | 179° |
| 2026-05-06 11:45 | 45.77399 | 9.60934 | 3437 ft | 61 kts | 154° |
| 2026-05-06 11:46 | 45.76945 | 9.60709 | 3200 ft | 92 kts | 198° |
| 2026-05-06 11:46 | 45.76328 | 9.60686 | 3026 ft | 81 kts | 197° |
| 2026-05-06 11:46 | 45.75716 | 9.60721 | 2374 ft | 94 kts | 149° |
| 2026-05-06 11:46 | 45.75088 | 9.60919 | 1959 ft | 90 kts | 174° |
| 2026-05-06 11:47 | 45.74461 | 9.60755 | 1600 ft | 90 kts | 197° |
| 2026-05-06 11:47 | 45.73818 | 9.60477 | 1160 ft | 96 kts | 202° |
| 2026-05-06 11:47 | 45.73244 | 9.60170 | 1020 ft | 78 kts | 198° |
| 2026-05-06 11:47 | 45.72728 | 9.59849 | 822 ft | 76 kts | 199° |
| 2026-05-06 11:48 | 45.72258 | 9.59609 | 752 ft | 64 kts | 195° |
| 2026-05-06 11:48 | 45.72297 | 9.59625 | 755 ft | 0 kts | 195° |
| 2026-05-06 11:48 | 45.72296 | 9.59625 | 755 ft | 0 kts | 195° |
| 2026-05-06 11:48 | 45.72174 | 9.59531 | 757 ft | 63 kts | 213° |
| 2026-05-06 11:49 | 45.71695 | 9.59192 | 752 ft | 52 kts | 205° |
| 2026-05-06 11:49 | 45.71547 | 9.59118 | 754 ft | 8 kts | 192° |
| 2026-05-06 11:49 | 45.71543 | 9.59116 | 750 ft | 0 kts | 208° |